الصفحة الرئيسية
METAR-TAF:

METAR-TAF

مطار :

مطار بتروبافل

بتروبافل, كازاخستان

دائرة عرض: 54-46-28N, خط طول: 069-11-06E, ارتفاع: 139 متر

مراقبة الطقس الحالي

تاريخ ووقت الإصدار 4ساعات و 25 دقيقة قبل الساعة 11:30UTC
ريح 4 عقدة من الجنوب الغربي
درجة الحرارة 1°درجة مئوية
الرطوبة 75%
ضغط 1022 hPa
الرؤية 10 كم أو أكثر
الغيوم لا تقل 1500 م ولا وجود لمزنة ركامية السحاب الأسود

METAR: UACP 241130Z 22002MPS CAVOK 01/M03 Q1022 R23/0/0060 NOSIG RMK QFE754/1006

زمن: 21:55 (15:55 UTC)

توقعات

تاريخ ووقت الإصدار 7ساعات و 52 دقيقة قبل الساعة 08:03UTC
التوقعات صالحة من24 الساعة 09 UTC إلى 24 الساعة 18 UTC
ريح 4 عقدةمن اتجاهات متغيرة
الرؤية 10 كم أو أكثر
غيوم متفرقة على ارتفاع 1500 قدم
مؤقت
من 24 الساعة 09 UTC إلى 24 الساعة 12 UTC
ريح 6 عقدة من الجنوب

TAF: UACP 240803Z 2409/2418 VRB02MPS 9999 SCT015 TEMPO 2409/2412 19003MPS

أرصاد الطقس والتوقعات من أكثر من 4000 مطار (تقارير الطقس للمطار METAR والتنبؤ بالطقس بالمطارTAF).

المحطات المتاحة هي النقط الصفراء والحمراء على الخريطة.

حرك المؤشر فوق النقطة لمعرفة اسم المحطة.

ثم انقر لمعرفة أرصاد وتوقعات الطقس.

لتغيير الخارطة: اضغط على الأزرار الخضراء مع رمز الصليب الأسود للتكبير. على الزر الأخضر مع شرطة للتصغير، أو على الأسهم الخضراء للخرائط المجاورة.


METAR-TAF: